createdAt,value
2023-05-01T00:00:15.336Z,8.93
2023-05-01T00:02:48.035Z,9.18
2023-05-01T00:05:18.096Z,7.13
2023-05-01T00:07:46.331Z,8.68
2023-05-01T00:10:14.498Z,11.05
2023-05-01T00:12:42.720Z,8.63
2023-05-01T00:15:12.056Z,8.02
2023-05-01T00:17:40.448Z,8.65
2023-05-01T00:20:09.833Z,6.55
2023-05-01T00:22:39.589Z,8.85
2023-05-01T00:25:08.704Z,7.53
2023-05-01T00:27:37.073Z,8.15
2023-05-01T00:30:06.060Z,7.88
2023-05-01T00:32:35.640Z,7.43
2023-05-01T00:35:03.878Z,7.18
2023-05-01T00:37:32.365Z,7.18
2023-05-01T00:40:02.085Z,6.95
2023-05-01T00:42:36.009Z,6.47
2023-05-01T00:45:05.081Z,6.05
2023-05-01T00:47:34.920Z,7.07
2023-05-01T00:50:03.895Z,7.63
2023-05-01T00:52:32.983Z,8.20
2023-05-01T00:55:02.899Z,8.45
2023-05-01T00:57:32.537Z,5.85
2023-05-01T01:00:00.854Z,5.15
2023-05-01T01:02:29.606Z,9.20
2023-05-01T01:04:58.314Z,10.10
2023-05-01T01:07:38.093Z,3.83
2023-05-01T01:10:18.317Z,8.77
2023-05-01T01:12:55.927Z,10.85
2023-05-01T01:15:33.020Z,10.85
2023-05-01T01:18:09.667Z,9.38
2023-05-01T01:20:46.306Z,14.80
2023-05-01T01:23:51.612Z,7.05
2023-05-01T01:26:43.412Z,8.20
2023-05-01T01:29:45.123Z,10.32
2023-05-01T01:32:38.781Z,7.95
2023-05-01T01:35:14.184Z,8.43
2023-05-01T01:37:49.222Z,5.85
2023-05-01T01:40:23.586Z,7.03
2023-05-01T01:42:56.620Z,5.05
2023-05-01T01:45:31.049Z,6.65
2023-05-01T01:48:01.207Z,6.72
2023-05-01T01:50:33.343Z,9.93
2023-05-01T01:53:03.510Z,6.07
2023-05-01T01:55:35.094Z,8.98
2023-05-01T01:58:05.215Z,9.73
2023-05-01T02:00:35.864Z,7.55
2023-05-01T02:03:05.261Z,7.18
2023-05-01T02:05:37.382Z,7.85
2023-05-01T02:08:07.764Z,7.32
2023-05-01T02:10:37.604Z,9.05
2023-05-01T02:13:06.777Z,8.60
2023-05-01T02:15:36.712Z,7.05
2023-05-01T02:18:06.588Z,9.27
2023-05-01T02:20:38.940Z,9.88
2023-05-01T02:23:09.113Z,11.43
2023-05-01T02:25:40.508Z,10.82
2023-05-01T02:28:13.532Z,9.77
2023-05-01T02:30:42.481Z,12.45
2023-05-01T02:33:11.029Z,10.70
2023-05-01T02:35:45.100Z,10.70
2023-05-01T02:38:13.976Z,10.50
2023-05-01T02:40:46.653Z,11.13
2023-05-01T02:43:19.604Z,8.25
2023-05-01T02:45:50.563Z,12.55
2023-05-01T02:48:24.572Z,10.70
2023-05-01T02:50:55.614Z,9.80
2023-05-01T02:53:24.240Z,12.45
2023-05-01T02:55:58.423Z,11.50
2023-05-01T02:58:26.810Z,11.43
2023-05-01T03:00:55.126Z,6.88
2023-05-01T03:03:23.510Z,6.05
2023-05-01T03:05:52.186Z,4.75
2023-05-01T03:08:22.318Z,11.15
2023-05-01T03:10:51.220Z,7.22
2023-05-01T03:13:19.444Z,4.88
2023-05-01T03:15:47.638Z,6.30
2023-05-01T03:18:16.069Z,6.15
2023-05-01T03:20:52.976Z,5.22
2023-05-01T03:23:23.333Z,4.68
2023-05-01T03:25:52.029Z,7.43
2023-05-01T03:28:21.800Z,6.30
2023-05-01T03:30:51.455Z,8.30
2023-05-01T03:33:20.051Z,3.60
2023-05-01T03:35:49.089Z,6.30
2023-05-01T03:38:17.687Z,3.45
2023-05-01T03:41:06.251Z,3.50
2023-05-01T03:43:53.161Z,2.85
2023-05-01T03:46:34.939Z,5.82
2023-05-01T03:49:04.050Z,6.43
2023-05-01T03:51:36.202Z,6.88
2023-05-01T03:54:05.020Z,6.80
2023-05-01T03:56:46.203Z,3.45
2023-05-01T03:59:14.876Z,3.95
2023-05-01T04:01:44.206Z,4.35
2023-05-01T04:04:12.660Z,4.75
2023-05-01T04:06:44.920Z,2.75
2023-05-01T04:09:13.405Z,5.13
2023-05-01T04:11:41.733Z,4.05
2023-05-01T04:14:11.377Z,5.32
2023-05-01T04:16:39.778Z,5.53
2023-05-01T04:19:09.074Z,5.28
2023-05-01T04:21:41.955Z,4.88
2023-05-01T04:24:10.663Z,5.05
2023-05-01T04:26:40.099Z,6.32
2023-05-01T04:29:08.767Z,5.25
2023-05-01T04:31:38.464Z,6.10
2023-05-01T04:34:06.882Z,4.80
2023-05-01T04:36:37.556Z,4.97
2023-05-01T04:39:06.176Z,5.13
2023-05-01T04:41:34.836Z,3.97
2023-05-01T04:44:03.520Z,4.93
2023-05-01T04:46:31.755Z,4.70
2023-05-01T04:49:01.550Z,4.75
2023-05-01T04:51:30.275Z,6.32
2023-05-01T04:53:58.619Z,4.85
2023-05-01T04:56:28.601Z,2.78
2023-05-01T04:59:01.976Z,4.75
2023-05-01T05:01:32.357Z,4.18
2023-05-01T05:04:02.237Z,4.05
2023-05-01T05:06:31.456Z,4.53
2023-05-01T05:09:00.307Z,4.78
2023-05-01T05:11:28.813Z,4.47
2023-05-01T05:13:59.794Z,3.53
2023-05-01T05:16:28.523Z,4.00
2023-05-01T05:18:57.787Z,5.53
2023-05-01T05:21:30.026Z,4.30
2023-05-01T05:23:59.772Z,4.20
2023-05-01T05:26:29.141Z,4.72
2023-05-01T05:29:01.313Z,4.47
2023-05-01T05:31:29.696Z,3.65
2023-05-01T05:33:59.982Z,3.67
2023-05-01T05:36:30.163Z,5.10
2023-05-01T05:39:00.586Z,8.05
2023-05-01T05:41:28.968Z,5.18
2023-05-01T05:44:01.407Z,3.85
2023-05-01T05:46:29.869Z,2.75
2023-05-01T05:48:58.128Z,6.82
2023-05-01T05:51:29.284Z,9.20
2023-05-01T05:53:58.234Z,5.55
2023-05-01T05:56:26.681Z,4.80
2023-05-01T05:58:55.113Z,3.33
2023-05-01T06:01:23.808Z,8.40
2023-05-01T06:03:52.465Z,4.70
2023-05-01T06:06:21.023Z,4.63
2023-05-01T06:08:52.006Z,3.42
2023-05-01T06:11:21.623Z,3.97
2023-05-01T06:13:50.072Z,6.60
2023-05-01T06:16:18.602Z,4.97
2023-05-01T06:18:47.096Z,6.85
2023-05-01T06:21:15.464Z,3.33
2023-05-01T06:23:44.997Z,3.22
2023-05-01T06:26:33.703Z,3.83
2023-05-01T06:29:02.504Z,4.78
2023-05-01T06:31:31.100Z,2.28
2023-05-01T06:34:00.364Z,3.25
2023-05-01T06:39:06.865Z,3.88
2023-05-01T06:41:38.702Z,2.95
2023-05-01T06:44:07.248Z,3.53
2023-05-01T06:46:35.545Z,2.17
2023-05-01T06:49:03.976Z,6.72
2023-05-01T06:51:32.642Z,4.07
2023-05-01T06:54:01.090Z,3.05
2023-05-01T06:56:29.549Z,2.10
2023-05-01T06:58:59.228Z,2.25
2023-05-01T07:01:27.713Z,1.48
2023-05-01T07:03:56.011Z,4.43
2023-05-01T07:06:24.407Z,10.20
2023-05-01T07:08:52.746Z,2.70
2023-05-01T07:11:21.054Z,2.58
2023-05-01T07:13:49.590Z,8.13
2023-05-01T07:16:19.283Z,5.78
2023-05-01T07:18:47.503Z,5.20
2023-05-01T07:21:15.903Z,4.43
2023-05-01T07:23:44.081Z,7.30
2023-05-01T07:26:12.341Z,4.68
2023-05-01T07:28:41.683Z,7.60
2023-05-01T07:31:11.320Z,3.72
2023-05-01T07:33:42.035Z,3.03
2023-05-01T07:36:10.659Z,6.53
2023-05-01T07:38:38.949Z,5.28
2023-05-01T07:41:07.547Z,3.40
2023-05-01T07:43:35.840Z,2.70
2023-05-01T07:46:04.159Z,1.95
2023-05-01T07:48:33.784Z,2.88
2023-05-01T07:51:05.000Z,1.88
2023-05-01T07:53:33.390Z,3.22
2023-05-01T07:56:09.131Z,1.98
2023-05-01T07:58:38.397Z,1.77
2023-05-01T08:01:07.709Z,11.30
2023-05-01T08:03:36.227Z,8.15
2023-05-01T08:06:06.372Z,2.00
2023-05-01T08:08:34.749Z,5.50
2023-05-01T08:11:03.003Z,5.63
2023-05-01T08:13:31.314Z,3.20
2023-05-01T08:16:02.813Z,1.42
2023-05-01T08:18:31.807Z,3.55
2023-05-01T08:21:00.096Z,2.00
2023-05-01T08:23:29.941Z,4.45
2023-05-01T08:25:58.657Z,2.60
2023-05-01T08:28:27.051Z,1.52
2023-05-01T08:30:55.307Z,4.35
2023-05-01T08:33:24.442Z,2.55
2023-05-01T08:35:53.610Z,4.60
2023-05-01T08:38:21.873Z,3.13
2023-05-01T08:40:54.164Z,4.25
2023-05-01T08:43:24.294Z,2.03
2023-05-01T08:45:56.001Z,7.10
2023-05-01T08:48:27.060Z,9.52
2023-05-01T08:50:59.416Z,22.17
2023-05-01T08:53:28.386Z,27.98
2023-05-01T08:56:00.251Z,8.15
2023-05-01T08:58:30.110Z,1.58
2023-05-01T09:01:01.268Z,3.53
2023-05-01T09:03:32.899Z,7.85
2023-05-01T09:06:03.951Z,2.17
2023-05-01T09:08:32.344Z,2.28
2023-05-01T09:11:03.244Z,7.55
2023-05-01T09:13:32.042Z,4.78
2023-05-01T09:16:01.642Z,4.53
2023-05-01T09:18:31.242Z,2.25
2023-05-01T09:20:59.848Z,5.45
2023-05-01T09:23:28.238Z,6.20
2023-05-01T09:25:57.136Z,9.77
2023-05-01T09:28:45.632Z,4.47
2023-05-01T09:31:22.800Z,6.03
2023-05-01T09:33:55.522Z,26.73
2023-05-01T09:36:25.355Z,21.30
2023-05-01T09:38:54.033Z,34.90
2023-05-01T09:41:22.521Z,17.17
2023-05-01T09:43:53.646Z,17.98
2023-05-01T09:46:22.890Z,7.82
2023-05-01T09:48:56.250Z,21.45
2023-05-01T09:51:27.160Z,16.73
2023-05-01T09:53:57.952Z,3.90
2023-05-01T09:56:28.057Z,4.95
2023-05-01T09:58:59.925Z,5.20
2023-05-01T10:01:41.718Z,2.58
2023-05-01T10:04:10.797Z,6.10
2023-05-01T10:06:39.811Z,8.00
2023-05-01T10:09:16.676Z,3.33
2023-05-01T10:11:53.790Z,4.55
2023-05-01T10:14:24.324Z,2.10
2023-05-01T10:16:53.783Z,4.10
2023-05-01T10:19:22.264Z,3.60
2023-05-01T10:21:50.825Z,7.28
2023-05-01T10:24:19.110Z,5.65
2023-05-01T10:26:50.076Z,1.60
2023-05-01T10:29:23.437Z,3.92
2023-05-01T10:31:53.341Z,4.20
2023-05-01T10:34:26.243Z,2.45
2023-05-01T10:37:02.067Z,2.60
2023-05-01T10:39:34.097Z,2.08
2023-05-01T10:42:05.924Z,15.50
2023-05-01T10:44:36.009Z,2.53
2023-05-01T10:47:41.621Z,7.03
2023-05-01T10:50:12.933Z,2.22
2023-05-01T10:53:20.297Z,1.98
2023-05-01T10:55:50.034Z,1.38
2023-05-01T10:58:52.647Z,1.50
2023-05-01T11:01:35.576Z,2.00
2023-05-01T11:04:08.181Z,3.90
2023-05-01T11:06:38.899Z,2.13
2023-05-01T11:09:38.750Z,1.30
2023-05-01T11:15:08.122Z,1.63
2023-05-01T11:17:50.531Z,2.28
2023-05-01T11:20:48.423Z,4.15
2023-05-01T11:23:25.735Z,8.18
2023-05-01T11:26:05.837Z,5.50
2023-05-01T11:28:35.120Z,7.22
2023-05-01T11:31:03.740Z,7.03
2023-05-01T11:33:32.424Z,12.95
2023-05-01T11:36:02.275Z,6.53
2023-05-01T11:38:32.434Z,4.13
2023-05-01T11:41:03.778Z,4.20
2023-05-01T11:43:32.836Z,3.30
2023-05-01T11:46:04.368Z,4.38
2023-05-01T11:48:33.117Z,6.20
2023-05-01T11:51:01.348Z,5.85
2023-05-01T11:53:32.018Z,6.63
2023-05-01T11:56:01.345Z,5.55
2023-05-01T11:58:34.841Z,4.90
2023-05-01T12:01:03.955Z,4.00
2023-05-01T12:04:03.562Z,2.53
2023-05-01T12:06:44.632Z,7.70
2023-05-01T12:09:46.364Z,5.18
2023-05-01T12:12:14.820Z,1.58
2023-05-01T12:14:43.549Z,7.93
2023-05-01T12:17:12.443Z,8.60
2023-05-01T12:19:50.073Z,9.52
2023-05-01T12:22:19.508Z,11.40
2023-05-01T12:24:53.858Z,3.22
2023-05-01T12:27:22.563Z,4.28
2023-05-01T12:29:50.908Z,4.57
2023-05-01T12:32:19.372Z,5.90
2023-05-01T12:34:48.819Z,7.50
2023-05-01T12:37:17.224Z,5.18
2023-05-01T12:39:45.892Z,8.50
2023-05-01T12:42:16.974Z,5.78
2023-05-01T12:44:45.740Z,14.50
2023-05-01T12:47:14.575Z,9.45
2023-05-01T12:49:43.203Z,5.13
2023-05-01T12:52:11.618Z,2.40
2023-05-01T12:54:41.540Z,3.30
2023-05-01T12:57:11.486Z,5.20
2023-05-01T12:59:42.541Z,5.18
2023-05-01T13:02:12.884Z,1.65
2023-05-01T13:04:41.865Z,3.65
2023-05-01T13:07:15.051Z,6.55
2023-05-01T13:09:53.617Z,4.97
2023-05-01T13:12:22.747Z,2.65
2023-05-01T13:14:52.879Z,1.63
2023-05-01T13:17:25.707Z,1.63
2023-05-01T13:19:56.034Z,2.65
2023-05-01T13:22:32.507Z,3.47
2023-05-01T13:25:01.495Z,5.18
2023-05-01T13:27:30.021Z,1.58
2023-05-01T13:30:01.042Z,1.95
2023-05-01T13:32:33.238Z,4.68
2023-05-01T13:35:02.936Z,2.25
2023-05-01T13:37:33.447Z,0.90
2023-05-01T13:40:02.122Z,1.30
2023-05-01T13:42:31.833Z,1.52
2023-05-01T13:45:05.716Z,5.70
2023-05-01T13:47:34.267Z,1.75
2023-05-01T13:50:02.732Z,1.92
2023-05-01T13:52:32.381Z,1.77
2023-05-01T13:55:01.607Z,2.92
2023-05-01T13:57:32.769Z,0.95
2023-05-01T14:00:02.491Z,3.05
2023-05-01T14:02:45.398Z,3.38
2023-05-01T14:05:14.043Z,1.40
2023-05-01T14:07:55.181Z,1.60
2023-05-01T14:10:25.173Z,1.23
2023-05-01T14:12:56.701Z,2.60
2023-05-01T14:15:26.925Z,2.70
2023-05-01T14:17:55.253Z,4.72
2023-05-01T14:20:26.683Z,2.08
2023-05-01T14:22:55.448Z,2.75
2023-05-01T14:25:26.189Z,1.10
2023-05-01T14:27:55.806Z,2.58
2023-05-01T14:30:30.296Z,1.70
2023-05-01T14:32:58.750Z,1.17
2023-05-01T14:35:27.393Z,2.28
2023-05-01T14:37:56.253Z,3.80
2023-05-01T14:40:27.681Z,1.75
2023-05-01T14:42:59.503Z,2.95
2023-05-01T14:45:29.331Z,2.20
2023-05-01T14:47:57.771Z,7.55
2023-05-01T14:50:26.370Z,7.68
2023-05-01T14:52:55.326Z,7.93
2023-05-01T14:55:27.880Z,1.92
2023-05-01T14:57:56.849Z,6.03
2023-05-01T15:00:26.785Z,2.05
2023-05-01T15:02:56.700Z,7.85
2023-05-01T15:05:26.109Z,22.02
2023-05-01T15:08:00.487Z,5.38
2023-05-01T15:10:31.760Z,1.63
2023-05-01T15:13:00.753Z,1.70
2023-05-01T15:15:29.817Z,1.10
2023-05-01T15:17:59.633Z,2.50
2023-05-01T15:20:28.232Z,2.92
2023-05-01T15:22:56.578Z,8.80
2023-05-01T15:25:24.896Z,3.33
2023-05-01T15:27:53.259Z,6.47
2023-05-01T15:30:21.504Z,1.40
2023-05-01T15:32:50.129Z,6.57
2023-05-01T15:35:21.547Z,5.22
2023-05-01T15:37:50.608Z,2.67
2023-05-01T15:40:19.176Z,3.90
2023-05-01T15:42:48.528Z,3.28
2023-05-01T15:45:17.001Z,5.68
2023-05-01T15:47:45.423Z,1.67
2023-05-01T15:50:13.753Z,2.17
2023-05-01T15:52:43.516Z,2.22
2023-05-01T15:55:12.791Z,6.03
2023-05-01T15:57:41.260Z,7.50
2023-05-01T16:00:10.685Z,1.33
2023-05-01T16:02:39.138Z,3.22
2023-05-01T16:05:08.591Z,1.50
2023-05-01T16:07:37.270Z,1.83
2023-05-01T16:10:09.567Z,1.52
2023-05-01T16:12:38.139Z,3.20
2023-05-01T16:15:07.267Z,2.78
2023-05-01T16:17:43.603Z,2.15
2023-05-01T16:20:13.373Z,3.83
2023-05-01T16:22:44.040Z,1.58
2023-05-01T16:25:14.169Z,2.38
2023-05-01T16:27:44.366Z,2.58
2023-05-01T16:30:15.414Z,3.90
2023-05-01T16:32:44.744Z,4.25
2023-05-01T16:35:18.423Z,1.98
2023-05-01T16:37:47.102Z,3.45
2023-05-01T16:40:19.525Z,1.20
2023-05-01T16:42:52.062Z,1.55
2023-05-01T16:45:20.866Z,2.67
2023-05-01T16:47:49.626Z,3.65
2023-05-01T16:50:18.128Z,1.67
2023-05-01T16:52:46.376Z,2.45
2023-05-01T16:55:14.817Z,3.17
2023-05-01T16:57:44.731Z,1.50
2023-05-01T17:00:14.090Z,4.60
2023-05-01T17:02:42.952Z,3.05
2023-05-01T17:05:11.390Z,4.15
2023-05-01T17:07:39.670Z,8.18
2023-05-01T17:10:09.346Z,7.32
2023-05-01T17:12:37.586Z,9.07
2023-05-01T17:15:08.692Z,7.20
2023-05-01T17:17:37.716Z,14.32
2023-05-01T17:20:06.936Z,22.80
2023-05-01T17:22:35.293Z,19.30
2023-05-01T17:25:04.342Z,16.73
2023-05-01T17:27:33.986Z,13.40
2023-05-01T17:30:02.470Z,22.60
2023-05-01T17:32:37.456Z,32.53
2023-05-01T17:35:07.269Z,30.45
2023-05-01T17:37:35.512Z,21.30
2023-05-01T17:40:04.975Z,23.45
2023-05-01T17:42:33.656Z,18.65
2023-05-01T17:45:02.107Z,21.52
2023-05-01T17:47:32.965Z,34.67
2023-05-01T17:50:04.706Z,27.73
2023-05-01T17:52:33.440Z,55.90
2023-05-01T17:55:01.689Z,31.33
2023-05-01T17:57:32.375Z,33.90
2023-05-01T18:00:01.271Z,23.25
2023-05-01T18:02:33.674Z,21.80
2023-05-01T18:05:03.688Z,23.10
2023-05-01T18:07:33.548Z,34.67
2023-05-01T18:10:02.158Z,27.77
2023-05-01T18:12:35.263Z,39.80
2023-05-01T18:15:03.655Z,43.05
2023-05-01T18:17:33.955Z,25.25
2023-05-01T18:20:04.241Z,24.55
2023-05-01T18:22:34.595Z,12.07
2023-05-01T18:25:03.225Z,10.93
2023-05-01T18:27:32.545Z,10.57
2023-05-01T18:30:01.135Z,17.27
2023-05-01T18:32:43.272Z,18.70
2023-05-01T18:35:16.626Z,19.45
2023-05-01T18:37:44.997Z,23.60
2023-05-01T18:40:13.911Z,16.25
2023-05-01T18:42:42.726Z,25.63
2023-05-01T18:45:11.306Z,26.73
2023-05-01T18:47:39.599Z,26.67
2023-05-01T18:50:09.358Z,28.00
2023-05-01T18:52:39.040Z,23.88
2023-05-01T18:55:08.078Z,17.15
2023-05-01T18:57:36.333Z,24.15
2023-05-01T19:00:05.843Z,13.98
2023-05-01T19:02:34.612Z,13.43
2023-05-01T19:05:02.969Z,23.13
2023-05-01T19:07:31.924Z,25.27
2023-05-01T19:10:01.845Z,13.15
2023-05-01T19:12:34.167Z,12.52
2023-05-01T19:15:02.406Z,10.70
2023-05-01T19:17:34.205Z,18.33
2023-05-01T19:20:04.283Z,19.77
2023-05-01T19:22:33.374Z,19.45
2023-05-01T19:25:03.365Z,9.63
2023-05-01T19:27:32.926Z,11.48
2023-05-01T19:30:01.884Z,9.63
2023-05-01T19:32:33.871Z,14.00
2023-05-01T19:35:02.359Z,10.55
2023-05-01T19:37:32.199Z,11.43
2023-05-01T19:40:00.906Z,17.65
2023-05-01T19:42:31.861Z,22.50
2023-05-01T19:45:00.360Z,26.52
2023-05-01T19:47:29.117Z,18.48
2023-05-01T19:49:58.042Z,14.73
2023-05-01T19:52:27.527Z,15.35
2023-05-01T19:54:56.117Z,19.23
2023-05-01T19:57:25.180Z,23.73
2023-05-01T19:59:55.608Z,15.10
2023-05-01T20:02:24.130Z,17.23
2023-05-01T20:04:53.019Z,12.45
2023-05-01T20:07:21.597Z,13.88
2023-05-01T20:09:50.027Z,10.85
2023-05-01T20:12:18.268Z,10.82
2023-05-01T20:14:47.642Z,12.93
2023-05-01T20:17:17.265Z,16.60
2023-05-01T20:19:45.505Z,28.45
2023-05-01T20:22:13.699Z,24.23
2023-05-01T20:24:41.955Z,25.92
2023-05-01T20:27:10.346Z,12.65
2023-05-01T20:29:39.441Z,13.13
2023-05-01T20:32:07.767Z,13.65
2023-05-01T20:34:37.359Z,9.35
2023-05-01T20:37:07.070Z,12.27
2023-05-01T20:39:35.658Z,16.70
2023-05-01T20:42:06.145Z,14.63
2023-05-01T20:44:34.458Z,12.30
2023-05-01T20:47:02.729Z,13.02
2023-05-01T20:49:31.049Z,10.30
2023-05-01T20:52:01.014Z,10.23
2023-05-01T20:54:32.397Z,9.52
2023-05-01T20:57:01.919Z,10.80
2023-05-01T20:59:30.211Z,11.20
2023-05-01T21:01:58.517Z,10.88
2023-05-01T21:04:26.862Z,10.07
2023-05-01T21:06:55.760Z,11.52
2023-05-01T21:09:26.427Z,14.82
2023-05-01T21:11:54.744Z,14.20
2023-05-01T21:14:22.946Z,10.50
2023-05-01T21:16:51.371Z,8.38
2023-05-01T21:19:19.831Z,8.23
2023-05-01T21:21:48.281Z,12.88
2023-05-01T21:24:23.921Z,10.65
2023-05-01T21:26:54.891Z,16.42
2023-05-01T21:29:23.192Z,7.93
2023-05-01T21:31:51.529Z,8.63
2023-05-01T21:34:20.369Z,9.50
2023-05-01T21:36:49.274Z,10.10
2023-05-01T21:39:17.756Z,5.55
2023-05-01T21:41:49.460Z,9.50
2023-05-01T21:44:19.396Z,10.02
2023-05-01T21:46:47.808Z,8.90
2023-05-01T21:49:23.082Z,6.82
2023-05-01T21:51:51.374Z,8.13
2023-05-01T21:54:21.525Z,9.93
2023-05-01T21:56:50.160Z,5.85
2023-05-01T21:59:19.768Z,3.35
2023-05-01T22:01:48.013Z,8.07
2023-05-01T22:04:19.018Z,5.10
2023-05-01T22:06:47.425Z,3.13
2023-05-01T22:09:15.849Z,5.30
2023-05-01T22:11:44.388Z,5.78
2023-05-01T22:14:12.667Z,5.13
2023-05-01T22:16:42.380Z,3.42
2023-05-01T22:19:10.764Z,6.97
2023-05-01T22:21:39.200Z,4.15
2023-05-01T22:24:07.767Z,5.70
2023-05-01T22:26:36.133Z,3.75
2023-05-01T22:29:04.780Z,5.47
2023-05-01T22:31:33.535Z,7.13
2023-05-01T22:34:03.329Z,12.57
2023-05-01T22:36:31.733Z,4.45
2023-05-01T22:38:59.972Z,4.97
2023-05-01T22:41:28.333Z,14.32
2023-05-01T22:43:56.726Z,5.82
2023-05-01T22:46:25.750Z,13.68
2023-05-01T22:48:54.057Z,9.15
2023-05-01T22:51:23.767Z,11.90
2023-05-01T22:53:52.005Z,6.72
2023-05-01T22:56:20.331Z,8.02
2023-05-01T22:58:48.606Z,9.23
2023-05-01T23:01:16.930Z,6.43
2023-05-01T23:03:45.366Z,5.07
2023-05-01T23:06:13.872Z,5.00
2023-05-01T23:08:43.473Z,5.93
2023-05-01T23:11:12.435Z,5.13
2023-05-01T23:13:44.456Z,6.20
2023-05-01T23:16:16.363Z,6.38
2023-05-01T23:18:45.208Z,7.60
2023-05-01T23:21:14.772Z,5.28
2023-05-01T23:23:45.365Z,7.22
2023-05-01T23:26:26.861Z,9.02
2023-05-01T23:28:55.354Z,6.00
2023-05-01T23:31:26.027Z,5.40
2023-05-01T23:33:55.426Z,9.07
2023-05-01T23:36:23.812Z,4.10
2023-05-01T23:38:53.569Z,6.10
2023-05-01T23:41:22.882Z,4.68
2023-05-01T23:43:51.166Z,2.83
2023-05-01T23:46:19.453Z,2.13
2023-05-01T23:48:47.902Z,3.75
2023-05-01T23:51:16.212Z,4.50
2023-05-01T23:53:44.964Z,5.63
2023-05-01T23:56:14.609Z,3.85
2023-05-01T23:58:43.038Z,3.50
